sensor_id;sensor_type;location;lat;lon;timestamp;P1;durP1;ratioP1;P2;durP2;ratioP2
56321;SDS011;42227;6.376;-10.782;2023-03-01T00:02:24;95.65;;;47.05;;
56321;SDS011;42227;6.376;-10.782;2023-03-01T00:04:52;94.90;;;43.33;;
56321;SDS011;42227;6.376;-10.782;2023-03-01T00:07:21;95.30;;;48.95;;
56321;SDS011;42227;6.376;-10.782;2023-03-01T00:09:49;91.18;;;43.38;;
56321;SDS011;42227;6.376;-10.782;2023-03-01T00:12:17;93.78;;;40.85;;
56321;SDS011;42227;6.376;-10.782;2023-03-01T00:14:45;74.55;;;32.65;;
56321;SDS011;42227;6.376;-10.782;2023-03-01T00:17:14;78.95;;;29.98;;
56321;SDS011;42227;6.376;-10.782;2023-03-01T00:19:42;101.47;;;45.65;;
56321;SDS011;42227;6.376;-10.782;2023-03-01T00:22:10;70.05;;;34.08;;
56321;SDS011;42227;6.376;-10.782;2023-03-01T00:24:39;68.45;;;34.85;;
56321;SDS011;42227;6.376;-10.782;2023-03-01T00:27:07;78.45;;;42.53;;
56321;SDS011;42227;6.376;-10.782;2023-03-01T00:29:35;92.88;;;43.95;;
56321;SDS011;42227;6.376;-10.782;2023-03-01T00:32:04;83.68;;;42.03;;
56321;SDS011;42227;6.376;-10.782;2023-03-01T00:34:32;37.20;;;18.25;;
56321;SDS011;42227;6.376;-10.782;2023-03-01T00:37:00;27.67;;;10.23;;
56321;SDS011;42227;6.376;-10.782;2023-03-01T00:39:29;34.28;;;9.25;;
56321;SDS011;42227;6.376;-10.782;2023-03-01T00:41:57;48.10;;;19.67;;
56321;SDS011;42227;6.376;-10.782;2023-03-01T00:44:25;56.90;;;24.90;;
56321;SDS011;42227;6.376;-10.782;2023-03-01T00:46:54;56.72;;;27.30;;
56321;SDS011;42227;6.376;-10.782;2023-03-01T00:49:22;60.20;;;29.98;;
56321;SDS011;42227;6.376;-10.782;2023-03-01T00:51:50;64.25;;;30.80;;
56321;SDS011;42227;6.376;-10.782;2023-03-01T00:54:18;68.97;;;32.80;;
56321;SDS011;42227;6.376;-10.782;2023-03-01T00:56:47;66.10;;;32.72;;
56321;SDS011;42227;6.376;-10.782;2023-03-01T00:59:15;56.28;;;30.70;;
56321;SDS011;42227;6.376;-10.782;2023-03-01T01:01:43;50.60;;;29.35;;
56321;SDS011;42227;6.376;-10.782;2023-03-01T01:04:12;55.90;;;26.27;;
56321;SDS011;42227;6.376;-10.782;2023-03-01T01:06:44;74.38;;;27.17;;
56321;SDS011;42227;6.376;-10.782;2023-03-01T01:09:14;65.38;;;32.00;;
56321;SDS011;42227;6.376;-10.782;2023-03-01T01:11:46;70.25;;;35.33;;
56321;SDS011;42227;6.376;-10.782;2023-03-01T01:16:45;83.45;;;51.67;;
56321;SDS011;42227;6.376;-10.782;2023-03-01T01:19:13;76.95;;;44.47;;
56321;SDS011;42227;6.376;-10.782;2023-03-01T01:21:42;68.93;;;37.53;;
56321;SDS011;42227;6.376;-10.782;2023-03-01T01:24:11;77.85;;;40.88;;
56321;SDS011;42227;6.376;-10.782;2023-03-01T01:26:40;80.32;;;34.72;;
56321;SDS011;42227;6.376;-10.782;2023-03-01T01:29:08;48.80;;;25.73;;
56321;SDS011;42227;6.376;-10.782;2023-03-01T01:31:38;59.72;;;26.08;;
56321;SDS011;42227;6.376;-10.782;2023-03-01T01:34:11;48.17;;;24.52;;
56321;SDS011;42227;6.376;-10.782;2023-03-01T01:36:47;51.00;;;26.58;;
56321;SDS011;42227;6.376;-10.782;2023-03-01T01:39:20;44.65;;;24.42;;
56321;SDS011;42227;6.376;-10.782;2023-03-01T01:41:48;47.28;;;28.80;;
56321;SDS011;42227;6.376;-10.782;2023-03-01T01:44:24;160.18;;;92.20;;
56321;SDS011;42227;6.376;-10.782;2023-03-01T01:52:11;119.85;;;60.72;;
56321;SDS011;42227;6.376;-10.782;2023-03-01T01:55:10;58.85;;;28.83;;
56321;SDS011;42227;6.376;-10.782;2023-03-01T01:57:45;50.90;;;29.08;;
56321;SDS011;42227;6.376;-10.782;2023-03-01T02:00:21;57.33;;;30.10;;
56321;SDS011;42227;6.376;-10.782;2023-03-01T02:02:53;52.17;;;32.47;;
56321;SDS011;42227;6.376;-10.782;2023-03-01T02:08:22;72.10;;;36.55;;
56321;SDS011;42227;6.376;-10.782;2023-03-01T02:10:55;49.13;;;34.95;;
56321;SDS011;42227;6.376;-10.782;2023-03-01T02:13:24;64.03;;;35.20;;
56321;SDS011;42227;6.376;-10.782;2023-03-01T02:15:53;65.57;;;36.67;;
56321;SDS011;42227;6.376;-10.782;2023-03-01T02:18:23;91.90;;;42.78;;
56321;SDS011;42227;6.376;-10.782;2023-03-01T02:23:29;58.53;;;36.92;;
56321;SDS011;42227;6.376;-10.782;2023-03-01T02:26:02;85.47;;;44.70;;
56321;SDS011;42227;6.376;-10.782;2023-03-01T02:28:35;63.50;;;37.55;;
56321;SDS011;42227;6.376;-10.782;2023-03-01T02:31:06;67.70;;;40.55;;
56321;SDS011;42227;6.376;-10.782;2023-03-01T02:33:37;61.15;;;36.80;;
56321;SDS011;42227;6.376;-10.782;2023-03-01T02:36:07;67.95;;;41.35;;
56321;SDS011;42227;6.376;-10.782;2023-03-01T02:38:40;77.55;;;39.42;;
56321;SDS011;42227;6.376;-10.782;2023-03-01T02:41:09;69.80;;;38.25;;
56321;SDS011;42227;6.376;-10.782;2023-03-01T02:43:42;59.72;;;37.47;;
56321;SDS011;42227;6.376;-10.782;2023-03-01T02:46:17;57.70;;;32.72;;
56321;SDS011;42227;6.376;-10.782;2023-03-01T02:48:52;72.40;;;33.13;;
56321;SDS011;42227;6.376;-10.782;2023-03-01T02:54:05;58.53;;;32.17;;
56321;SDS011;42227;6.376;-10.782;2023-03-01T02:56:41;57.10;;;30.00;;
56321;SDS011;42227;6.376;-10.782;2023-03-01T02:59:11;61.92;;;33.33;;
56321;SDS011;42227;6.376;-10.782;2023-03-01T03:01:40;55.22;;;31.50;;
56321;SDS011;42227;6.376;-10.782;2023-03-01T03:04:09;64.22;;;32.55;;
56321;SDS011;42227;6.376;-10.782;2023-03-01T03:06:41;56.92;;;32.42;;
56321;SDS011;42227;6.376;-10.782;2023-03-01T03:09:11;66.82;;;33.78;;
56321;SDS011;42227;6.376;-10.782;2023-03-01T03:11:43;61.65;;;31.60;;
56321;SDS011;42227;6.376;-10.782;2023-03-01T03:14:12;60.33;;;29.73;;
56321;SDS011;42227;6.376;-10.782;2023-03-01T03:16:46;62.92;;;32.75;;
56321;SDS011;42227;6.376;-10.782;2023-03-01T03:19:16;43.67;;;26.48;;
56321;SDS011;42227;6.376;-10.782;2023-03-01T03:21:45;51.72;;;29.33;;
56321;SDS011;42227;6.376;-10.782;2023-03-01T03:24:14;47.38;;;27.02;;
56321;SDS011;42227;6.376;-10.782;2023-03-01T03:26:42;51.22;;;26.15;;
56321;SDS011;42227;6.376;-10.782;2023-03-01T03:29:10;72.88;;;30.35;;
56321;SDS011;42227;6.376;-10.782;2023-03-01T03:31:38;50.72;;;28.30;;
56321;SDS011;42227;6.376;-10.782;2023-03-01T03:34:07;47.03;;;26.10;;
56321;SDS011;42227;6.376;-10.782;2023-03-01T03:36:35;37.60;;;26.98;;
56321;SDS011;42227;6.376;-10.782;2023-03-01T03:39:03;42.65;;;28.52;;
56321;SDS011;42227;6.376;-10.782;2023-03-01T03:41:34;61.17;;;29.73;;
56321;SDS011;42227;6.376;-10.782;2023-03-01T03:44:02;42.90;;;27.98;;
56321;SDS011;42227;6.376;-10.782;2023-03-01T03:46:30;38.92;;;25.48;;
56321;SDS011;42227;6.376;-10.782;2023-03-01T03:48:59;47.25;;;27.98;;
56321;SDS011;42227;6.376;-10.782;2023-03-01T03:51:27;59.35;;;27.20;;
56321;SDS011;42227;6.376;-10.782;2023-03-01T03:53:55;46.92;;;25.23;;
56321;SDS011;42227;6.376;-10.782;2023-03-01T03:56:23;51.78;;;25.52;;
56321;SDS011;42227;6.376;-10.782;2023-03-01T03:58:54;52.70;;;28.77;;
56321;SDS011;42227;6.376;-10.782;2023-03-01T04:01:22;52.05;;;27.42;;
56321;SDS011;42227;6.376;-10.782;2023-03-01T04:03:51;64.53;;;29.70;;
56321;SDS011;42227;6.376;-10.782;2023-03-01T04:06:19;56.30;;;24.83;;
56321;SDS011;42227;6.376;-10.782;2023-03-01T04:08:48;44.15;;;24.08;;
56321;SDS011;42227;6.376;-10.782;2023-03-01T04:11:16;56.47;;;25.88;;
56321;SDS011;42227;6.376;-10.782;2023-03-01T04:13:44;52.80;;;25.48;;
56321;SDS011;42227;6.376;-10.782;2023-03-01T04:16:12;55.05;;;25.77;;
56321;SDS011;42227;6.376;-10.782;2023-03-01T04:18:41;38.33;;;21.98;;
56321;SDS011;42227;6.376;-10.782;2023-03-01T04:21:09;39.63;;;19.73;;
56321;SDS011;42227;6.376;-10.782;2023-03-01T04:23:37;37.08;;;18.13;;
56321;SDS011;42227;6.376;-10.782;2023-03-01T04:26:06;48.72;;;18.27;;
56321;SDS011;42227;6.376;-10.782;2023-03-01T04:28:36;36.70;;;18.25;;
56321;SDS011;42227;6.376;-10.782;2023-03-01T04:31:07;46.70;;;19.40;;
56321;SDS011;42227;6.376;-10.782;2023-03-01T04:33:37;37.55;;;17.75;;
56321;SDS011;42227;6.376;-10.782;2023-03-01T04:36:06;39.47;;;16.63;;
56321;SDS011;42227;6.376;-10.782;2023-03-01T04:38:36;29.45;;;16.40;;
56321;SDS011;42227;6.376;-10.782;2023-03-01T04:41:05;34.97;;;16.25;;
56321;SDS011;42227;6.376;-10.782;2023-03-01T04:43:36;43.67;;;18.13;;
56321;SDS011;42227;6.376;-10.782;2023-03-01T04:46:08;30.73;;;13.98;;
56321;SDS011;42227;6.376;-10.782;2023-03-01T04:48:42;35.38;;;17.00;;
56321;SDS011;42227;6.376;-10.782;2023-03-01T04:51:12;39.13;;;19.98;;
56321;SDS011;42227;6.376;-10.782;2023-03-01T04:53:40;42.13;;;16.33;;
56321;SDS011;42227;6.376;-10.782;2023-03-01T04:56:10;61.30;;;26.05;;
56321;SDS011;42227;6.376;-10.782;2023-03-01T04:58:38;38.60;;;16.45;;
56321;SDS011;42227;6.376;-10.782;2023-03-01T05:01:10;38.00;;;18.25;;
56321;SDS011;42227;6.376;-10.782;2023-03-01T05:03:44;32.88;;;15.57;;
56321;SDS011;42227;6.376;-10.782;2023-03-01T05:06:14;46.65;;;18.42;;
56321;SDS011;42227;6.376;-10.782;2023-03-01T05:08:43;32.88;;;17.38;;
56321;SDS011;42227;6.376;-10.782;2023-03-01T05:11:12;38.10;;;16.30;;
56321;SDS011;42227;6.376;-10.782;2023-03-01T05:13:41;42.85;;;17.42;;
56321;SDS011;42227;6.376;-10.782;2023-03-01T05:16:09;38.83;;;16.67;;
56321;SDS011;42227;6.376;-10.782;2023-03-01T05:18:38;39.17;;;16.38;;
56321;SDS011;42227;6.376;-10.782;2023-03-01T05:21:09;37.30;;;15.68;;
56321;SDS011;42227;6.376;-10.782;2023-03-01T05:23:39;33.70;;;15.75;;
56321;SDS011;42227;6.376;-10.782;2023-03-01T05:26:07;41.70;;;16.15;;
56321;SDS011;42227;6.376;-10.782;2023-03-01T05:28:53;22.95;;;12.77;;
56321;SDS011;42227;6.376;-10.782;2023-03-01T05:31:22;28.17;;;13.32;;
56321;SDS011;42227;6.376;-10.782;2023-03-01T05:33:50;31.77;;;14.23;;
56321;SDS011;42227;6.376;-10.782;2023-03-01T05:36:21;37.42;;;15.23;;
56321;SDS011;42227;6.376;-10.782;2023-03-01T05:38:50;27.73;;;14.50;;
56321;SDS011;42227;6.376;-10.782;2023-03-01T05:41:18;38.58;;;18.08;;
56321;SDS011;42227;6.376;-10.782;2023-03-01T05:43:46;31.65;;;15.65;;
56321;SDS011;42227;6.376;-10.782;2023-03-01T05:46:15;34.05;;;17.67;;
56321;SDS011;42227;6.376;-10.782;2023-03-01T05:48:43;50.67;;;19.25;;
56321;SDS011;42227;6.376;-10.782;2023-03-01T05:51:12;48.33;;;20.10;;
56321;SDS011;42227;6.376;-10.782;2023-03-01T05:53:40;51.90;;;24.38;;
56321;SDS011;42227;6.376;-10.782;2023-03-01T05:56:08;41.95;;;23.42;;
56321;SDS011;42227;6.376;-10.782;2023-03-01T05:58:37;42.60;;;24.15;;
56321;SDS011;42227;6.376;-10.782;2023-03-01T06:01:05;42.05;;;21.25;;
56321;SDS011;42227;6.376;-10.782;2023-03-01T06:03:39;37.35;;;17.60;;
56321;SDS011;42227;6.376;-10.782;2023-03-01T06:06:08;33.53;;;17.45;;
56321;SDS011;42227;6.376;-10.782;2023-03-01T06:08:36;34.70;;;20.42;;
56321;SDS011;42227;6.376;-10.782;2023-03-01T06:11:05;55.75;;;20.77;;
56321;SDS011;42227;6.376;-10.782;2023-03-01T06:13:33;36.42;;;16.00;;
56321;SDS011;42227;6.376;-10.782;2023-03-01T06:16:04;33.67;;;16.05;;
56321;SDS011;42227;6.376;-10.782;2023-03-01T06:18:33;39.13;;;16.65;;
56321;SDS011;42227;6.376;-10.782;2023-03-01T06:21:01;31.40;;;14.23;;
56321;SDS011;42227;6.376;-10.782;2023-03-01T06:23:30;25.00;;;14.30;;
56321;SDS011;42227;6.376;-10.782;2023-03-01T06:25:59;46.70;;;19.38;;
56321;SDS011;42227;6.376;-10.782;2023-03-01T06:28:28;32.92;;;18.65;;
56321;SDS011;42227;6.376;-10.782;2023-03-01T06:30:56;32.25;;;17.05;;
56321;SDS011;42227;6.376;-10.782;2023-03-01T06:33:24;34.90;;;17.45;;
56321;SDS011;42227;6.376;-10.782;2023-03-01T06:35:56;28.58;;;17.10;;
56321;SDS011;42227;6.376;-10.782;2023-03-01T06:38:24;29.17;;;16.23;;
56321;SDS011;42227;6.376;-10.782;2023-03-01T06:40:53;34.60;;;14.77;;
56321;SDS011;42227;6.376;-10.782;2023-03-01T06:43:22;31.58;;;14.73;;
56321;SDS011;42227;6.376;-10.782;2023-03-01T06:45:51;36.22;;;17.35;;
56321;SDS011;42227;6.376;-10.782;2023-03-01T06:48:19;41.50;;;18.83;;
56321;SDS011;42227;6.376;-10.782;2023-03-01T06:50:47;37.10;;;16.65;;
56321;SDS011;42227;6.376;-10.782;2023-03-01T06:53:16;47.53;;;19.77;;
56321;SDS011;42227;6.376;-10.782;2023-03-01T06:55:44;37.80;;;19.10;;
56321;SDS011;42227;6.376;-10.782;2023-03-01T06:58:12;38.15;;;16.20;;
56321;SDS011;42227;6.376;-10.782;2023-03-01T07:00:41;39.15;;;15.18;;
56321;SDS011;42227;6.376;-10.782;2023-03-01T07:03:09;27.45;;;15.45;;
56321;SDS011;42227;6.376;-10.782;2023-03-01T07:05:37;29.42;;;16.13;;
56321;SDS011;42227;6.376;-10.782;2023-03-01T07:08:06;38.83;;;16.77;;
56321;SDS011;42227;6.376;-10.782;2023-03-01T07:10:34;49.88;;;15.30;;
56321;SDS011;42227;6.376;-10.782;2023-03-01T07:13:02;25.65;;;13.07;;
56321;SDS011;42227;6.376;-10.782;2023-03-01T07:15:30;23.50;;;12.70;;
56321;SDS011;42227;6.376;-10.782;2023-03-01T07:17:59;22.15;;;13.52;;
56321;SDS011;42227;6.376;-10.782;2023-03-01T07:20:27;41.88;;;16.23;;
56321;SDS011;42227;6.376;-10.782;2023-03-01T07:22:55;26.85;;;13.95;;
56321;SDS011;42227;6.376;-10.782;2023-03-01T07:25:25;48.25;;;15.65;;
56321;SDS011;42227;6.376;-10.782;2023-03-01T07:27:53;26.15;;;12.85;;
56321;SDS011;42227;6.376;-10.782;2023-03-01T07:30:21;32.95;;;11.68;;
56321;SDS011;42227;6.376;-10.782;2023-03-01T07:32:50;29.55;;;14.23;;
56321;SDS011;42227;6.376;-10.782;2023-03-01T07:35:22;31.87;;;12.63;;
56321;SDS011;42227;6.376;-10.782;2023-03-01T07:37:51;28.60;;;15.68;;
56321;SDS011;42227;6.376;-10.782;2023-03-01T07:40:19;33.95;;;13.25;;
56321;SDS011;42227;6.376;-10.782;2023-03-01T07:42:47;32.10;;;12.40;;
56321;SDS011;42227;6.376;-10.782;2023-03-01T07:45:15;32.15;;;14.85;;
56321;SDS011;42227;6.376;-10.782;2023-03-01T07:47:44;25.50;;;13.30;;
56321;SDS011;42227;6.376;-10.782;2023-03-01T07:50:12;21.13;;;11.60;;
56321;SDS011;42227;6.376;-10.782;2023-03-01T07:52:40;30.83;;;14.23;;
56321;SDS011;42227;6.376;-10.782;2023-03-01T07:55:08;41.15;;;16.90;;
56321;SDS011;42227;6.376;-10.782;2023-03-01T07:57:37;34.33;;;15.68;;
56321;SDS011;42227;6.376;-10.782;2023-03-01T08:00:06;44.35;;;15.65;;
56321;SDS011;42227;6.376;-10.782;2023-03-01T08:02:39;33.90;;;14.27;;
56321;SDS011;42227;6.376;-10.782;2023-03-01T08:05:09;30.38;;;16.27;;
56321;SDS011;42227;6.376;-10.782;2023-03-01T08:07:37;39.72;;;16.90;;
56321;SDS011;42227;6.376;-10.782;2023-03-01T08:10:05;50.40;;;17.88;;
56321;SDS011;42227;6.376;-10.782;2023-03-01T08:12:34;31.27;;;16.27;;
56321;SDS011;42227;6.376;-10.782;2023-03-01T08:15:02;28.70;;;15.15;;
56321;SDS011;42227;6.376;-10.782;2023-03-01T08:17:31;31.70;;;14.60;;
56321;SDS011;42227;6.376;-10.782;2023-03-01T08:19:59;52.05;;;17.92;;
56321;SDS011;42227;6.376;-10.782;2023-03-01T08:24:58;37.05;;;16.23;;
56321;SDS011;42227;6.376;-10.782;2023-03-01T08:27:28;31.50;;;15.77;;
56321;SDS011;42227;6.376;-10.782;2023-03-01T08:29:56;32.90;;;15.70;;
56321;SDS011;42227;6.376;-10.782;2023-03-01T08:32:25;52.80;;;16.60;;
56321;SDS011;42227;6.376;-10.782;2023-03-01T08:34:53;40.95;;;15.65;;
56321;SDS011;42227;6.376;-10.782;2023-03-01T08:37:21;43.33;;;16.40;;
56321;SDS011;42227;6.376;-10.782;2023-03-01T08:39:50;34.40;;;15.90;;
56321;SDS011;42227;6.376;-10.782;2023-03-01T08:42:18;50.90;;;15.88;;
56321;SDS011;42227;6.376;-10.782;2023-03-01T08:44:46;36.85;;;15.32;;
56321;SDS011;42227;6.376;-10.782;2023-03-01T08:47:15;33.30;;;15.13;;
56321;SDS011;42227;6.376;-10.782;2023-03-01T08:49:43;40.90;;;15.00;;
56321;SDS011;42227;6.376;-10.782;2023-03-01T08:52:11;30.77;;;14.32;;
56321;SDS011;42227;6.376;-10.782;2023-03-01T08:54:39;34.72;;;13.90;;
56321;SDS011;42227;6.376;-10.782;2023-03-01T08:57:08;22.63;;;11.63;;
56321;SDS011;42227;6.376;-10.782;2023-03-01T08:59:36;21.35;;;10.77;;
56321;SDS011;42227;6.376;-10.782;2023-03-01T09:02:05;22.27;;;10.88;;
56321;SDS011;42227;6.376;-10.782;2023-03-01T09:04:39;26.25;;;12.32;;
56321;SDS011;42227;6.376;-10.782;2023-03-01T09:07:08;36.67;;;11.18;;
56321;SDS011;42227;6.376;-10.782;2023-03-01T09:09:37;19.65;;;10.00;;
56321;SDS011;42227;6.376;-10.782;2023-03-01T09:12:05;26.58;;;9.30;;
56321;SDS011;42227;6.376;-10.782;2023-03-01T09:14:33;22.02;;;10.80;;
56321;SDS011;42227;6.376;-10.782;2023-03-01T09:17:02;31.27;;;9.90;;
56321;SDS011;42227;6.376;-10.782;2023-03-01T09:19:30;37.35;;;15.25;;
56321;SDS011;42227;6.376;-10.782;2023-03-01T09:21:58;42.28;;;15.25;;
56321;SDS011;42227;6.376;-10.782;2023-03-01T09:24:27;33.58;;;13.40;;
56321;SDS011;42227;6.376;-10.782;2023-03-01T09:26:55;22.23;;;11.95;;
56321;SDS011;42227;6.376;-10.782;2023-03-01T09:29:24;29.98;;;14.13;;
56321;SDS011;42227;6.376;-10.782;2023-03-01T09:31:52;34.08;;;11.48;;
56321;SDS011;42227;6.376;-10.782;2023-03-01T09:34:21;24.08;;;8.25;;
56321;SDS011;42227;6.376;-10.782;2023-03-01T09:36:50;40.35;;;12.52;;
56321;SDS011;42227;6.376;-10.782;2023-03-01T09:39:19;34.03;;;12.93;;
56321;SDS011;42227;6.376;-10.782;2023-03-01T09:41:57;37.10;;;10.73;;
56321;SDS011;42227;6.376;-10.782;2023-03-01T09:45:11;31.40;;;15.05;;
56321;SDS011;42227;6.376;-10.782;2023-03-01T09:47:28;25.60;;;11.57;;
56321;SDS011;42227;6.376;-10.782;2023-03-01T09:50:03;19.33;;;9.70;;
56321;SDS011;42227;6.376;-10.782;2023-03-01T09:52:46;18.88;;;10.27;;
56321;SDS011;42227;6.376;-10.782;2023-03-01T09:55:37;24.70;;;11.73;;
56321;SDS011;42227;6.376;-10.782;2023-03-01T10:00:54;21.27;;;8.85;;
56321;SDS011;42227;6.376;-10.782;2023-03-01T10:03:28;27.00;;;10.90;;
56321;SDS011;42227;6.376;-10.782;2023-03-01T10:06:20;36.30;;;11.15;;
56321;SDS011;42227;6.376;-10.782;2023-03-01T10:09:05;36.67;;;10.77;;
56321;SDS011;42227;6.376;-10.782;2023-03-01T10:11:47;31.77;;;12.65;;
56321;SDS011;42227;6.376;-10.782;2023-03-01T10:17:39;24.88;;;10.15;;
56321;SDS011;42227;6.376;-10.782;2023-03-01T10:23:30;25.38;;;8.57;;
56321;SDS011;42227;6.376;-10.782;2023-03-01T10:29:02;14.02;;;8.18;;
56321;SDS011;42227;6.376;-10.782;2023-03-01T10:34:19;20.63;;;7.05;;
56321;SDS011;42227;6.376;-10.782;2023-03-01T10:36:50;15.35;;;9.10;;
56321;SDS011;42227;6.376;-10.782;2023-03-01T10:39:21;20.55;;;10.23;;
56321;SDS011;42227;6.376;-10.782;2023-03-01T10:41:54;19.98;;;7.88;;
56321;SDS011;42227;6.376;-10.782;2023-03-01T10:44:36;23.58;;;8.20;;
56321;SDS011;42227;6.376;-10.782;2023-03-01T10:49:55;28.52;;;9.45;;
56321;SDS011;42227;6.376;-10.782;2023-03-01T10:52:37;22.55;;;9.27;;
56321;SDS011;42227;6.376;-10.782;2023-03-01T10:55:23;35.22;;;11.75;;
56321;SDS011;42227;6.376;-10.782;2023-03-01T10:58:18;25.67;;;12.52;;
56321;SDS011;42227;6.376;-10.782;2023-03-01T11:00:55;24.92;;;12.10;;
56321;SDS011;42227;6.376;-10.782;2023-03-01T11:03:26;16.77;;;9.05;;
56321;SDS011;42227;6.376;-10.782;2023-03-01T11:05:58;18.05;;;9.93;;
56321;SDS011;42227;6.376;-10.782;2023-03-01T11:08:31;27.85;;;11.68;;
56321;SDS011;42227;6.376;-10.782;2023-03-01T11:11:05;27.10;;;9.15;;
56321;SDS011;42227;6.376;-10.782;2023-03-01T11:13:48;19.73;;;9.63;;
56321;SDS011;42227;6.376;-10.782;2023-03-01T11:16:24;22.60;;;9.57;;
56321;SDS011;42227;6.376;-10.782;2023-03-01T11:18:59;21.45;;;9.98;;
56321;SDS011;42227;6.376;-10.782;2023-03-01T11:24:12;22.23;;;8.93;;
56321;SDS011;42227;6.376;-10.782;2023-03-01T11:26:43;20.02;;;9.98;;
56321;SDS011;42227;6.376;-10.782;2023-03-01T11:29:58;33.72;;;9.00;;
56321;SDS011;42227;6.376;-10.782;2023-03-01T11:32:15;31.40;;;11.07;;
56321;SDS011;42227;6.376;-10.782;2023-03-01T11:34:48;23.15;;;9.52;;
56321;SDS011;42227;6.376;-10.782;2023-03-01T11:37:38;30.37;;;9.73;;
56321;SDS011;42227;6.376;-10.782;2023-03-01T11:40:21;21.40;;;10.25;;
56321;SDS011;42227;6.376;-10.782;2023-03-01T11:43:01;28.95;;;8.25;;
56321;SDS011;42227;6.376;-10.782;2023-03-01T11:51:20;24.25;;;9.88;;
56321;SDS011;42227;6.376;-10.782;2023-03-01T12:02:20;19.08;;;9.45;;
56321;SDS011;42227;6.376;-10.782;2023-03-01T12:05:31;21.27;;;7.75;;
56321;SDS011;42227;6.376;-10.782;2023-03-01T12:08:15;16.13;;;9.27;;
56321;SDS011;42227;6.376;-10.782;2023-03-01T12:11:13;14.82;;;7.43;;
56321;SDS011;42227;6.376;-10.782;2023-03-01T12:19:22;22.73;;;7.32;;
56321;SDS011;42227;6.376;-10.782;2023-03-01T12:30:25;32.05;;;10.82;;
56321;SDS011;42227;6.376;-10.782;2023-03-01T12:35:40;51.15;;;16.38;;
56321;SDS011;42227;6.376;-10.782;2023-03-01T12:38:25;18.63;;;8.30;;
56321;SDS011;42227;6.376;-10.782;2023-03-01T12:46:49;22.88;;;8.20;;
56321;SDS011;42227;6.376;-10.782;2023-03-01T12:49:22;17.77;;;9.48;;
56321;SDS011;42227;6.376;-10.782;2023-03-01T12:51:59;42.17;;;19.13;;
56321;SDS011;42227;6.376;-10.782;2023-03-01T12:54:37;32.30;;;16.55;;
56321;SDS011;42227;6.376;-10.782;2023-03-01T12:57:12;32.95;;;15.02;;
56321;SDS011;42227;6.376;-10.782;2023-03-01T13:08:50;31.13;;;12.35;;
56321;SDS011;42227;6.376;-10.782;2023-03-01T13:11:34;25.23;;;9.55;;
56321;SDS011;42227;6.376;-10.782;2023-03-01T13:16:48;35.53;;;13.02;;
56321;SDS011;42227;6.376;-10.782;2023-03-01T13:19:22;18.83;;;10.88;;
56321;SDS011;42227;6.376;-10.782;2023-03-01T13:21:57;28.30;;;11.63;;
56321;SDS011;42227;6.376;-10.782;2023-03-01T13:27:11;26.58;;;8.75;;
56321;SDS011;42227;6.376;-10.782;2023-03-01T13:29:58;28.08;;;10.02;;
56321;SDS011;42227;6.376;-10.782;2023-03-01T13:32:31;32.42;;;9.88;;
56321;SDS011;42227;6.376;-10.782;2023-03-01T13:37:48;17.05;;;8.57;;
56321;SDS011;42227;6.376;-10.782;2023-03-01T13:42:48;27.13;;;9.27;;
56321;SDS011;42227;6.376;-10.782;2023-03-01T13:48:16;19.38;;;8.18;;
56321;SDS011;42227;6.376;-10.782;2023-03-01T13:51:03;21.58;;;10.10;;
56321;SDS011;42227;6.376;-10.782;2023-03-01T13:53:35;19.55;;;9.20;;
56321;SDS011;42227;6.376;-10.782;2023-03-01T13:59:13;25.67;;;8.77;;
56321;SDS011;42227;6.376;-10.782;2023-03-01T14:01:55;23.40;;;10.48;;
56321;SDS011;42227;6.376;-10.782;2023-03-01T14:04:32;33.03;;;10.88;;
56321;SDS011;42227;6.376;-10.782;2023-03-01T14:07:11;39.63;;;14.88;;
56321;SDS011;42227;6.376;-10.782;2023-03-01T14:09:44;17.83;;;10.48;;
56321;SDS011;42227;6.376;-10.782;2023-03-01T14:12:26;30.95;;;12.15;;
56321;SDS011;42227;6.376;-10.782;2023-03-01T14:18:29;39.50;;;17.90;;
56321;SDS011;42227;6.376;-10.782;2023-03-01T14:21:08;26.58;;;11.45;;
56321;SDS011;42227;6.376;-10.782;2023-03-01T14:23:38;27.60;;;8.68;;
56321;SDS011;42227;6.376;-10.782;2023-03-01T14:26:07;18.90;;;10.32;;
56321;SDS011;42227;6.376;-10.782;2023-03-01T14:28:37;31.60;;;8.50;;
56321;SDS011;42227;6.376;-10.782;2023-03-01T14:31:29;32.05;;;9.27;;
56321;SDS011;42227;6.376;-10.782;2023-03-01T14:34:18;47.67;;;17.48;;
56321;SDS011;42227;6.376;-10.782;2023-03-01T14:36:49;30.25;;;13.20;;
56321;SDS011;42227;6.376;-10.782;2023-03-01T14:39:19;27.52;;;13.85;;
56321;SDS011;42227;6.376;-10.782;2023-03-01T14:41:52;34.63;;;10.48;;
56321;SDS011;42227;6.376;-10.782;2023-03-01T14:44:23;17.77;;;7.43;;
56321;SDS011;42227;6.376;-10.782;2023-03-01T14:46:55;26.13;;;9.23;;
56321;SDS011;42227;6.376;-10.782;2023-03-01T14:49:25;31.35;;;12.43;;
56321;SDS011;42227;6.376;-10.782;2023-03-01T14:52:00;39.08;;;10.00;;
56321;SDS011;42227;6.376;-10.782;2023-03-01T14:54:35;29.58;;;9.68;;
56321;SDS011;42227;6.376;-10.782;2023-03-01T14:57:25;38.67;;;9.15;;
56321;SDS011;42227;6.376;-10.782;2023-03-01T14:59:58;31.30;;;8.52;;
56321;SDS011;42227;6.376;-10.782;2023-03-01T15:02:28;22.27;;;7.93;;
56321;SDS011;42227;6.376;-10.782;2023-03-01T15:05:00;23.50;;;9.45;;
56321;SDS011;42227;6.376;-10.782;2023-03-01T15:07:35;25.73;;;9.63;;
56321;SDS011;42227;6.376;-10.782;2023-03-01T15:10:14;20.88;;;10.10;;
56321;SDS011;42227;6.376;-10.782;2023-03-01T15:12:47;24.23;;;7.95;;
56321;SDS011;42227;6.376;-10.782;2023-03-01T15:15:29;22.45;;;9.73;;
56321;SDS011;42227;6.376;-10.782;2023-03-01T15:20:45;32.42;;;10.20;;
56321;SDS011;42227;6.376;-10.782;2023-03-01T15:23:22;18.60;;;8.85;;
56321;SDS011;42227;6.376;-10.782;2023-03-01T15:25:53;20.75;;;10.07;;
56321;SDS011;42227;6.376;-10.782;2023-03-01T15:30:59;24.05;;;8.77;;
56321;SDS011;42227;6.376;-10.782;2023-03-01T15:33:40;21.88;;;8.75;;
56321;SDS011;42227;6.376;-10.782;2023-03-01T15:42:51;23.50;;;9.05;;
56321;SDS011;42227;6.376;-10.782;2023-03-01T15:47:47;21.30;;;11.73;;
56321;SDS011;42227;6.376;-10.782;2023-03-01T15:52:53;23.88;;;10.10;;
56321;SDS011;42227;6.376;-10.782;2023-03-01T15:55:25;22.95;;;12.32;;
56321;SDS011;42227;6.376;-10.782;2023-03-01T15:57:59;28.67;;;11.25;;
56321;SDS011;42227;6.376;-10.782;2023-03-01T16:00:30;24.33;;;9.98;;
56321;SDS011;42227;6.376;-10.782;2023-03-01T16:02:59;23.50;;;7.72;;
56321;SDS011;42227;6.376;-10.782;2023-03-01T16:05:28;25.30;;;8.57;;
56321;SDS011;42227;6.376;-10.782;2023-03-01T16:07:58;18.88;;;6.97;;
56321;SDS011;42227;6.376;-10.782;2023-03-01T16:10:27;47.50;;;13.15;;
56321;SDS011;42227;6.376;-10.782;2023-03-01T16:12:55;25.00;;;14.80;;
56321;SDS011;42227;6.376;-10.782;2023-03-01T16:15:25;24.65;;;9.05;;
56321;SDS011;42227;6.376;-10.782;2023-03-01T16:17:59;22.80;;;8.77;;
56321;SDS011;42227;6.376;-10.782;2023-03-01T16:20:27;22.08;;;8.18;;
56321;SDS011;42227;6.376;-10.782;2023-03-01T16:23:04;28.50;;;13.50;;
56321;SDS011;42227;6.376;-10.782;2023-03-01T16:25:34;18.80;;;8.75;;
56321;SDS011;42227;6.376;-10.782;2023-03-01T16:28:03;18.52;;;13.10;;
56321;SDS011;42227;6.376;-10.782;2023-03-01T16:30:32;17.35;;;8.85;;
56321;SDS011;42227;6.376;-10.782;2023-03-01T16:33:03;17.97;;;10.03;;
56321;SDS011;42227;6.376;-10.782;2023-03-01T16:35:41;29.90;;;9.68;;
56321;SDS011;42227;6.376;-10.782;2023-03-01T16:38:10;34.38;;;11.90;;
56321;SDS011;42227;6.376;-10.782;2023-03-01T16:40:39;37.45;;;13.63;;